createdAt,value
2022-08-20T00:00:46.927Z,1018.68
2022-08-20T00:01:47.865Z,1018.66
2022-08-20T00:02:48.717Z,1018.65
2022-08-20T00:03:50.319Z,1018.63
2022-08-20T00:04:53.875Z,1018.66
2022-08-20T00:06:08.084Z,1018.60
2022-08-20T00:07:00.363Z,1018.55
2022-08-20T00:07:54.099Z,1018.52
2022-08-20T00:08:58.896Z,1018.56
2022-08-20T00:10:02.528Z,1018.64
2022-08-20T00:11:02.781Z,1018.65
2022-08-20T00:11:56.204Z,1018.65
2022-08-20T00:12:57.539Z,1018.65
2022-08-20T00:13:57.432Z,1018.58
2022-08-20T00:14:59.111Z,1018.58
2022-08-20T00:16:05.669Z,1018.61
2022-08-20T00:17:00.721Z,1018.64
2022-08-20T00:18:00.595Z,1018.67
2022-08-20T00:19:01.474Z,1018.68
2022-08-20T00:20:02.359Z,1018.63
2022-08-20T00:21:03.254Z,1018.59
2022-08-20T00:22:04.137Z,1018.60
2022-08-20T00:23:08.542Z,1018.62
2022-08-20T00:24:06.811Z,1018.68
2022-08-20T00:25:06.689Z,1018.72
2022-08-20T00:26:10.952Z,1018.70
2022-08-20T00:27:13.080Z,1018.68
2022-08-20T00:28:29.906Z,1018.67
2022-08-20T00:29:17.940Z,1018.68
2022-08-20T00:30:23.319Z,1018.66
2022-08-20T00:31:12.400Z,1018.66
2022-08-20T00:32:11.843Z,1018.68
2022-08-20T00:33:13.916Z,1018.69
2022-08-20T00:35:23.270Z,1018.65
2022-08-20T00:36:17.198Z,1018.64
2022-08-20T00:37:17.252Z,1018.60
2022-08-20T00:38:17.031Z,1018.62
2022-08-20T00:39:17.569Z,1018.62
2022-08-20T00:40:22.061Z,1018.62
2022-08-20T00:41:19.867Z,1018.57
2022-08-20T00:42:19.335Z,1018.63
2022-08-20T00:43:20.219Z,1018.65
2022-08-20T00:44:21.103Z,1018.66
2022-08-20T00:45:21.979Z,1018.71
2022-08-20T00:46:22.870Z,1018.72
2022-08-20T00:47:24.646Z,1018.71
2022-08-20T00:48:24.520Z,1018.71
2022-08-20T00:49:25.406Z,1018.70
2022-08-20T00:50:26.290Z,1018.69
2022-08-20T00:51:27.178Z,1018.69
2022-08-20T00:52:27.702Z,1018.67
2022-08-20T00:53:28.589Z,1018.65
2022-08-20T00:54:29.485Z,1018.66
2022-08-20T00:55:31.713Z,1018.68
2022-08-20T00:56:31.171Z,1018.69
2022-08-20T00:57:50.643Z,1018.67
2022-08-20T00:58:33.821Z,1018.67
2022-08-20T00:59:33.706Z,1018.65
2022-08-20T01:00:34.618Z,1018.64
2022-08-20T01:01:55.287Z,1018.63
2022-08-20T01:02:37.280Z,1018.62
2022-08-20T01:03:37.161Z,1018.61
2022-08-20T01:04:38.033Z,1018.59
2022-08-20T01:05:38.915Z,1018.57
2022-08-20T01:06:39.797Z,1018.58
2022-08-20T01:07:40.668Z,1018.58
2022-08-20T01:08:41.551Z,1018.59
2022-08-20T01:09:57.477Z,1018.60
2022-08-20T01:10:44.233Z,1018.59
2022-08-20T01:11:44.096Z,1018.56
2022-08-20T01:12:44.978Z,1018.54
2022-08-20T01:13:45.859Z,1018.54
2022-08-20T01:14:46.850Z,1018.54
2022-08-20T01:15:47.715Z,1018.56
2022-08-20T01:16:48.600Z,1018.58
2022-08-20T01:17:49.426Z,1018.58
2022-08-20T01:18:50.296Z,1018.56
2022-08-20T01:19:51.180Z,1018.52
2022-08-20T01:20:52.073Z,1018.51
2022-08-20T01:21:52.966Z,1018.49
2022-08-20T01:22:53.884Z,1018.50
2022-08-20T01:23:54.785Z,1018.52
2022-08-20T01:24:55.661Z,1018.53
2022-08-20T01:25:56.536Z,1018.54
2022-08-20T01:26:57.426Z,1018.56
2022-08-20T01:27:58.954Z,1018.54
2022-08-20T01:28:59.382Z,1018.56
2022-08-20T01:31:49.303Z,1018.50
2022-08-20T01:32:50.167Z,1018.51
2022-08-20T01:33:51.058Z,1018.53
2022-08-20T01:34:51.976Z,1018.55
2022-08-20T01:35:53.142Z,1018.55
2022-08-20T01:36:53.529Z,1018.55
2022-08-20T01:37:54.629Z,1018.49
2022-08-20T01:38:55.036Z,1018.45
2022-08-20T01:39:55.929Z,1018.45
2022-08-20T01:40:58.895Z,1018.45
2022-08-20T01:42:01.619Z,1018.45
2022-08-20T01:42:59.762Z,1018.42
2022-08-20T01:44:00.528Z,1018.39
2022-08-20T01:45:04.382Z,1018.38
2022-08-20T01:48:57.626Z,1018.28
2022-08-20T01:49:58.448Z,1018.30
2022-08-20T01:50:59.357Z,1018.31
2022-08-20T01:52:00.261Z,1018.32
2022-08-20T01:53:01.127Z,1018.33
2022-08-20T01:54:02.017Z,1018.31
2022-08-20T01:55:02.904Z,1018.28
2022-08-20T01:56:03.783Z,1018.26
2022-08-20T01:57:04.761Z,1018.25
2022-08-20T01:58:05.566Z,1018.27
2022-08-20T02:00:56.190Z,1018.32
2022-08-20T02:01:57.692Z,1018.32
2022-08-20T02:02:57.801Z,1018.30
2022-08-20T02:04:00.038Z,1018.28
2022-08-20T02:04:58.915Z,1018.27
2022-08-20T02:05:59.899Z,1018.26
2022-08-20T02:07:03.474Z,1018.25
2022-08-20T02:08:03.226Z,1018.26
2022-08-20T02:09:04.882Z,1018.29
2022-08-20T02:10:02.807Z,1018.30
2022-08-20T02:11:03.450Z,1018.32
2022-08-20T02:12:07.425Z,1018.32
2022-08-20T02:13:04.772Z,1018.30
2022-08-20T02:14:09.202Z,1018.29
2022-08-20T02:16:55.824Z,1018.26
2022-08-20T02:17:56.909Z,1018.28
2022-08-20T02:18:57.342Z,1018.28
2022-08-20T02:19:58.226Z,1018.27
2022-08-20T02:20:59.119Z,1018.24
2022-08-20T02:22:00.034Z,1018.23
2022-08-20T02:23:00.924Z,1018.22
2022-08-20T02:24:01.840Z,1018.22
2022-08-20T02:25:02.726Z,1018.21
2022-08-20T02:26:03.626Z,1018.23
2022-08-20T02:27:04.509Z,1018.23
2022-08-20T02:28:10.688Z,1018.26
2022-08-20T02:29:13.915Z,1018.27
2022-08-20T02:30:08.547Z,1018.28
2022-08-20T02:37:25.746Z,1018.32
2022-08-20T02:37:55.175Z,1018.32
2022-08-20T02:38:47.806Z,1018.36
2022-08-20T02:39:48.774Z,1018.37
2022-08-20T02:40:49.134Z,1018.37
2022-08-20T02:41:50.088Z,1018.36
2022-08-20T02:42:51.000Z,1018.36
2022-08-20T02:43:51.842Z,1018.35
2022-08-20T02:44:52.780Z,1018.33
2022-08-20T02:47:25.806Z,1018.30
2022-08-20T02:47:58.742Z,1018.30
2022-08-20T02:49:08.909Z,1018.30
2022-08-20T02:50:11.506Z,1018.33
2022-08-20T02:51:28.629Z,1018.35
2022-08-20T02:52:00.765Z,1018.36
2022-08-20T02:53:07.574Z,1018.35
2022-08-20T02:53:59.802Z,1018.34
2022-08-20T02:55:00.778Z,1018.32
2022-08-20T02:56:02.598Z,1018.31
2022-08-20T02:57:03.321Z,1018.33
2022-08-20T02:58:03.044Z,1018.32
2022-08-20T02:59:03.938Z,1018.28
2022-08-20T03:00:04.844Z,1018.27
2022-08-20T03:01:05.768Z,1018.26
2022-08-20T03:02:06.633Z,1018.26
2022-08-20T03:03:07.506Z,1018.28
2022-08-20T03:04:08.390Z,1018.25
2022-08-20T03:05:12.287Z,1018.24
2022-08-20T03:08:50.514Z,1018.15
2022-08-20T03:11:43.596Z,1018.23
2022-08-20T03:12:44.616Z,1018.24
2022-08-20T03:13:44.971Z,1018.26
2022-08-20T03:14:45.866Z,1018.25
2022-08-20T03:15:46.800Z,1018.23
2022-08-20T03:16:47.647Z,1018.20
2022-08-20T03:17:48.546Z,1018.17
2022-08-20T03:18:52.172Z,1018.14
2022-08-20T03:19:50.216Z,1018.14
2022-08-20T03:20:52.219Z,1018.16
2022-08-20T03:21:51.683Z,1018.19
2022-08-20T03:22:52.607Z,1018.23
2022-08-20T03:23:53.494Z,1018.26
2022-08-20T03:24:54.387Z,1018.30
2022-08-20T03:25:55.288Z,1018.33
2022-08-20T03:26:56.162Z,1018.32
2022-08-20T03:27:57.325Z,1018.31
2022-08-20T03:31:17.659Z,1018.22
2022-08-20T03:34:09.698Z,1018.33
2022-08-20T04:06:42.559Z,1018.44
2022-08-20T04:07:41.076Z,1018.52
2022-08-20T04:08:41.909Z,1018.53
2022-08-20T04:09:42.855Z,1018.53
2022-08-20T04:10:47.782Z,1018.50
2022-08-20T04:12:06.668Z,1018.48
2022-08-20T04:12:49.748Z,1018.45
2022-08-20T04:13:46.777Z,1018.43
2022-08-20T04:14:46.550Z,1018.42
2022-08-20T04:15:55.270Z,1018.43
2022-08-20T04:16:57.622Z,1018.45
2022-08-20T04:17:49.960Z,1018.47
2022-08-20T04:19:01.859Z,1018.51
2022-08-20T04:22:00.162Z,1018.49
2022-08-20T04:26:03.415Z,1018.51
2022-08-20T04:27:04.398Z,1018.62
2022-08-20T04:28:05.273Z,1018.62
2022-08-20T04:29:06.602Z,1018.64
2022-08-20T04:30:12.675Z,1018.64
2022-08-20T04:31:12.361Z,1018.62
2022-08-20T04:32:12.529Z,1018.61
2022-08-20T04:33:09.637Z,1018.59
2022-08-20T04:34:40.782Z,1018.57
2022-08-20T04:38:00.808Z,1018.54
2022-08-20T04:39:01.101Z,1018.57
2022-08-20T04:40:02.316Z,1018.57
2022-08-20T04:41:04.934Z,1018.58
2022-08-20T04:42:26.546Z,1018.59
2022-08-20T04:43:06.445Z,1018.62
2022-08-20T04:44:35.432Z,1018.63
2022-08-20T04:45:19.480Z,1018.62
2022-08-20T04:47:56.411Z,1018.63
2022-08-20T04:49:00.671Z,1018.62
2022-08-20T04:56:51.264Z,1018.60
2022-08-20T04:59:59.569Z,1018.57
2022-08-20T05:03:08.654Z,1018.71
2022-08-20T05:04:09.452Z,1018.78
2022-08-20T05:06:59.257Z,1018.76
2022-08-20T05:08:01.035Z,1018.74
2022-08-20T05:09:02.903Z,1018.73
2022-08-20T05:10:09.676Z,1018.73
2022-08-20T05:11:06.936Z,1018.75
2022-08-20T05:13:53.012Z,1018.80
2022-08-20T05:14:53.470Z,1018.81
2022-08-20T05:15:53.891Z,1018.81
2022-08-20T05:16:54.663Z,1018.81
2022-08-20T05:17:55.655Z,1018.82
2022-08-20T05:18:57.357Z,1018.82
2022-08-20T05:19:56.485Z,1018.86
2022-08-20T05:21:04.252Z,1018.85
2022-08-20T05:22:00.994Z,1018.85
2022-08-20T05:22:59.740Z,1018.87
2022-08-20T05:24:00.438Z,1018.88
2022-08-20T05:25:00.540Z,1018.89
2022-08-20T05:26:01.650Z,1018.92
2022-08-20T05:28:58.433Z,1018.93
2022-08-20T05:29:52.755Z,1018.94
2022-08-20T05:30:52.087Z,1018.93
2022-08-20T05:31:52.871Z,1018.93
2022-08-20T05:32:53.710Z,1018.91
2022-08-20T05:33:54.527Z,1018.90
2022-08-20T05:34:55.346Z,1018.91
2022-08-20T05:35:56.173Z,1018.93
2022-08-20T05:36:56.991Z,1018.94
2022-08-20T05:37:57.962Z,1018.94
2022-08-20T05:38:58.784Z,1018.94
2022-08-20T05:39:59.649Z,1018.95
2022-08-20T05:41:00.432Z,1018.94
2022-08-20T05:42:01.274Z,1018.96
2022-08-20T05:43:02.090Z,1018.96
2022-08-20T05:44:02.960Z,1018.99
2022-08-20T05:45:03.798Z,1019.01
2022-08-20T05:46:05.490Z,1019.00
2022-08-20T05:47:05.312Z,1019.00
2022-08-20T05:48:06.131Z,1019.01
2022-08-20T05:49:06.966Z,1019.00
2022-08-20T05:50:07.794Z,1019.00
2022-08-20T05:51:12.088Z,1019.00
2022-08-20T05:52:11.256Z,1018.99
2022-08-20T05:53:10.220Z,1019.00
2022-08-20T05:54:11.168Z,1019.02
2022-08-20T05:55:12.074Z,1019.03
2022-08-20T05:56:12.914Z,1019.06
2022-08-20T05:57:13.838Z,1019.06
2022-08-20T05:58:14.676Z,1019.05
2022-08-20T05:59:15.563Z,1019.12
2022-08-20T06:00:18.486Z,1019.13
2022-08-20T06:01:18.018Z,1019.14
2022-08-20T06:02:19.102Z,1019.13
2022-08-20T06:03:18.991Z,1019.11
2022-08-20T06:04:19.702Z,1019.06
2022-08-20T06:05:20.090Z,1019.02
2022-08-20T06:06:44.828Z,1019.02
2022-08-20T06:07:22.676Z,1019.03
2022-08-20T06:08:25.297Z,1019.06
2022-08-20T06:09:31.067Z,1019.08
2022-08-20T06:10:28.897Z,1019.08
2022-08-20T06:11:36.998Z,1019.10
2022-08-20T06:14:15.778Z,1019.11
2022-08-20T06:15:17.659Z,1019.12
2022-08-20T06:18:16.623Z,1019.16
2022-08-20T06:19:09.051Z,1019.17
2022-08-20T06:20:08.307Z,1019.18
2022-08-20T06:21:08.872Z,1019.18
2022-08-20T06:22:18.865Z,1019.19
2022-08-20T06:23:11.404Z,1019.20
2022-08-20T06:24:11.242Z,1019.22
2022-08-20T06:25:12.091Z,1019.23
2022-08-20T06:26:12.967Z,1019.24
2022-08-20T06:27:13.786Z,1019.24
2022-08-20T06:28:14.622Z,1019.27
2022-08-20T06:29:15.462Z,1019.28
2022-08-20T06:30:16.309Z,1019.29
2022-08-20T06:31:17.198Z,1019.31
2022-08-20T06:32:17.991Z,1019.33
2022-08-20T06:33:19.816Z,1019.34
2022-08-20T06:37:10.794Z,1019.38
2022-08-20T06:38:11.306Z,1019.37
2022-08-20T06:39:12.169Z,1019.37
2022-08-20T06:40:13.244Z,1019.33
2022-08-20T06:41:13.595Z,1019.32
2022-08-20T06:42:14.426Z,1019.32
2022-08-20T06:43:16.473Z,1019.36
2022-08-20T06:44:16.114Z,1019.41
2022-08-20T06:45:17.418Z,1019.43
2022-08-20T06:46:24.303Z,1019.45
2022-08-20T06:49:08.623Z,1019.40
2022-08-20T06:50:10.319Z,1019.40
2022-08-20T06:51:16.854Z,1019.41
2022-08-20T06:52:09.758Z,1019.40
2022-08-20T06:53:10.462Z,1019.36
2022-08-20T06:54:11.304Z,1019.36
2022-08-20T06:55:12.237Z,1019.35
2022-08-20T06:56:13.057Z,1019.38
2022-08-20T06:57:13.946Z,1019.41
2022-08-20T06:58:36.565Z,1019.43
2022-08-20T06:59:16.417Z,1019.43
2022-08-20T07:00:16.278Z,1019.47
2022-08-20T07:01:17.143Z,1019.48
2022-08-20T07:02:17.959Z,1019.49
2022-08-20T07:03:18.856Z,1019.48
2022-08-20T07:04:22.802Z,1019.47
2022-08-20T07:05:21.481Z,1019.46
2022-08-20T07:06:21.327Z,1019.47
2022-08-20T07:07:24.964Z,1019.47
2022-08-20T07:08:27.236Z,1019.49
2022-08-20T07:09:25.031Z,1019.48
2022-08-20T07:10:25.499Z,1019.50
2022-08-20T07:11:28.047Z,1019.50
2022-08-20T07:12:26.021Z,1019.49
2022-08-20T07:13:26.849Z,1019.50
2022-08-20T07:14:27.784Z,1019.51
2022-08-20T07:15:28.630Z,1019.51
2022-08-20T07:16:29.451Z,1019.54
2022-08-20T07:17:30.273Z,1019.54
2022-08-20T07:18:31.144Z,1019.55
2022-08-20T07:19:31.959Z,1019.54
2022-08-20T07:20:32.854Z,1019.56
2022-08-20T07:21:33.719Z,1019.56
2022-08-20T07:22:34.528Z,1019.56
2022-08-20T07:23:35.352Z,1019.57
2022-08-20T07:24:40.446Z,1019.59
2022-08-20T07:25:36.866Z,1019.58
2022-08-20T07:26:37.624Z,1019.57
2022-08-20T07:27:38.453Z,1019.56
2022-08-20T07:28:39.285Z,1019.55
2022-08-20T07:29:40.111Z,1019.55
2022-08-20T07:30:56.500Z,1019.56
2022-08-20T07:31:42.687Z,1019.56
2022-08-20T07:32:45.399Z,1019.56
2022-08-20T07:33:44.499Z,1019.55
2022-08-20T07:34:44.753Z,1019.55
2022-08-20T07:35:44.637Z,1019.54
2022-08-20T07:36:45.500Z,1019.55
2022-08-20T07:37:46.343Z,1019.57
2022-08-20T07:38:47.198Z,1019.57
2022-08-20T07:39:48.044Z,1019.57
2022-08-20T07:40:48.886Z,1019.58
2022-08-20T07:41:56.416Z,1019.57
2022-08-20T07:42:51.433Z,1019.59
2022-08-20T07:43:51.271Z,1019.60
2022-08-20T07:44:52.115Z,1019.62
2022-08-20T07:45:52.943Z,1019.60
2022-08-20T07:46:53.764Z,1019.61
2022-08-20T07:47:54.590Z,1019.62
2022-08-20T07:48:55.421Z,1019.64
2022-08-20T07:49:56.270Z,1019.66
2022-08-20T07:50:57.085Z,1019.69
2022-08-20T07:51:57.902Z,1019.74
2022-08-20T07:52:58.723Z,1019.74
2022-08-20T07:53:59.546Z,1019.77
2022-08-20T07:55:00.364Z,1019.78
2022-08-20T07:56:01.199Z,1019.81
2022-08-20T07:57:02.018Z,1019.83
2022-08-20T07:58:02.844Z,1019.87
2022-08-20T07:59:03.662Z,1019.88
2022-08-20T08:00:04.491Z,1019.87
2022-08-20T08:01:05.414Z,1019.86
2022-08-20T08:02:06.236Z,1019.87
2022-08-20T08:03:07.082Z,1019.86
2022-08-20T08:04:07.896Z,1019.82
2022-08-20T08:05:08.903Z,1019.81
2022-08-20T08:06:09.670Z,1019.81
2022-08-20T08:07:10.828Z,1019.83
2022-08-20T08:08:11.833Z,1019.83
2022-08-20T08:09:12.244Z,1019.85
2022-08-20T08:10:13.161Z,1019.87
2022-08-20T08:11:14.008Z,1019.86
2022-08-20T08:12:14.884Z,1019.88
2022-08-20T08:13:15.698Z,1019.86
2022-08-20T08:14:16.619Z,1019.84
2022-08-20T08:15:17.408Z,1019.88
2022-08-20T08:16:18.241Z,1019.88
2022-08-20T08:17:19.082Z,1019.89
2022-08-20T08:18:19.911Z,1019.91
2022-08-20T08:19:20.767Z,1019.95
2022-08-20T08:20:21.612Z,1019.95
2022-08-20T08:21:22.460Z,1019.97
2022-08-20T08:22:23.287Z,1019.98
2022-08-20T08:23:24.859Z,1019.97
2022-08-20T08:24:28.467Z,1019.97
2022-08-20T08:25:25.501Z,1019.97
2022-08-20T08:26:26.353Z,1019.98
2022-08-20T08:27:27.164Z,1020.01
2022-08-20T08:28:27.995Z,1019.99
2022-08-20T08:29:28.605Z,1019.99
2022-08-20T08:30:29.454Z,1019.96
2022-08-20T08:31:30.284Z,1019.99
2022-08-20T08:32:31.133Z,1019.98
2022-08-20T08:33:31.962Z,1020.01
2022-08-20T08:34:32.800Z,1020.06
2022-08-20T08:35:33.719Z,1020.06
2022-08-20T08:36:34.564Z,1020.08
2022-08-20T08:37:35.429Z,1020.07
2022-08-20T08:38:36.291Z,1020.09
2022-08-20T08:39:37.215Z,1020.06
2022-08-20T08:40:38.022Z,1020.06
2022-08-20T08:41:38.846Z,1020.08
2022-08-20T08:42:43.119Z,1020.07
2022-08-20T08:43:40.191Z,1020.10
2022-08-20T08:44:41.105Z,1020.12
2022-08-20T08:45:41.954Z,1020.15
2022-08-20T08:46:42.797Z,1020.18
2022-08-20T08:47:43.620Z,1020.20
2022-08-20T08:48:44.536Z,1020.24
2022-08-20T08:49:45.345Z,1020.25
2022-08-20T08:50:53.960Z,1020.24
2022-08-20T08:51:47.880Z,1020.25
2022-08-20T08:52:47.850Z,1020.24
2022-08-20T08:53:48.613Z,1020.19
2022-08-20T08:54:49.433Z,1020.18
2022-08-20T08:55:50.260Z,1020.15
2022-08-20T08:56:51.088Z,1020.14
2022-08-20T08:57:51.909Z,1020.16
2022-08-20T08:58:52.738Z,1020.18
2022-08-20T09:00:03.375Z,1020.22
2022-08-20T09:00:56.588Z,1020.24
2022-08-20T09:01:57.411Z,1020.25
2022-08-20T09:02:55.952Z,1020.26
2022-08-20T09:03:56.767Z,1020.26
2022-08-20T09:04:57.591Z,1020.24
2022-08-20T09:05:58.421Z,1020.22
2022-08-20T09:06:59.238Z,1020.22
2022-08-20T09:08:00.058Z,1020.20
2022-08-20T09:09:00.919Z,1020.18
2022-08-20T09:10:01.753Z,1020.17
2022-08-20T09:11:02.568Z,1020.20
2022-08-20T09:12:03.576Z,1020.20
2022-08-20T09:13:04.326Z,1020.18
2022-08-20T09:14:05.147Z,1020.21
2022-08-20T09:15:05.968Z,1020.22
2022-08-20T09:16:06.791Z,1020.23
2022-08-20T09:17:07.675Z,1020.24
2022-08-20T09:18:08.508Z,1020.25
2022-08-20T09:19:09.319Z,1020.24
2022-08-20T09:20:10.138Z,1020.27
2022-08-20T09:21:10.985Z,1020.26
2022-08-20T09:22:11.814Z,1020.27
2022-08-20T09:23:12.632Z,1020.25
2022-08-20T09:24:13.458Z,1020.26
2022-08-20T09:25:14.304Z,1020.24
2022-08-20T09:26:15.120Z,1020.21
2022-08-20T09:27:15.949Z,1020.20
2022-08-20T09:28:16.764Z,1020.18
2022-08-20T09:29:17.597Z,1020.18
2022-08-20T09:30:18.530Z,1020.16
2022-08-20T09:31:19.353Z,1020.15
2022-08-20T09:32:20.890Z,1020.14
2022-08-20T09:33:21.065Z,1020.16
2022-08-20T09:34:21.659Z,1020.17
2022-08-20T09:35:22.487Z,1020.18
2022-08-20T09:36:29.122Z,1020.17
2022-08-20T09:37:25.042Z,1020.18
2022-08-20T09:38:24.863Z,1020.16
2022-08-20T09:39:25.680Z,1020.13
2022-08-20T09:40:26.605Z,1020.14
2022-08-20T09:41:27.452Z,1020.10
2022-08-20T09:42:28.291Z,1020.11
2022-08-20T09:43:29.100Z,1020.11
2022-08-20T09:44:29.926Z,1020.11
2022-08-20T09:45:30.747Z,1020.10
2022-08-20T09:46:31.584Z,1020.11
2022-08-20T09:47:32.403Z,1020.14
2022-08-20T09:48:33.237Z,1020.16
2022-08-20T09:49:34.061Z,1020.15
2022-08-20T09:50:34.887Z,1020.12
2022-08-20T09:51:35.716Z,1020.13
2022-08-20T09:52:40.520Z,1020.13
2022-08-20T09:53:37.043Z,1020.10
2022-08-20T09:54:37.869Z,1020.10
2022-08-20T09:55:38.700Z,1020.09
2022-08-20T09:56:39.526Z,1020.07
2022-08-20T09:57:40.347Z,1020.04
2022-08-20T09:58:41.175Z,1020.03
2022-08-20T09:59:42.015Z,1020.03
2022-08-20T10:00:42.835Z,1020.03
2022-08-20T10:01:43.712Z,1020.03
2022-08-20T10:02:44.502Z,1020.04
2022-08-20T10:03:45.322Z,1020.05
2022-08-20T10:04:46.148Z,1020.04
2022-08-20T10:05:46.805Z,1020.04
2022-08-20T10:06:47.626Z,1020.05
2022-08-20T10:07:48.443Z,1020.04
2022-08-20T10:08:49.274Z,1020.03
2022-08-20T10:09:50.090Z,1020.05
2022-08-20T10:10:50.916Z,1020.06
2022-08-20T10:11:51.744Z,1020.05
2022-08-20T10:12:54.866Z,1020.07
2022-08-20T10:13:53.454Z,1020.06
2022-08-20T10:14:54.275Z,1020.06
2022-08-20T10:15:55.095Z,1020.04
2022-08-20T10:16:55.953Z,1020.04
2022-08-20T10:17:56.736Z,1020.03
2022-08-20T10:18:57.506Z,1020.01
2022-08-20T10:19:58.347Z,1019.99
2022-08-20T10:20:59.218Z,1019.99
2022-08-20T10:21:59.996Z,1019.97
2022-08-20T10:23:00.820Z,1019.93
2022-08-20T10:24:01.637Z,1019.95
2022-08-20T10:25:02.460Z,1019.91
2022-08-20T10:26:03.278Z,1019.94
2022-08-20T10:27:04.111Z,1019.92
2022-08-20T10:28:04.954Z,1019.90
2022-08-20T10:29:05.762Z,1019.92
2022-08-20T10:30:06.581Z,1019.89
2022-08-20T10:31:07.425Z,1019.89
2022-08-20T10:32:08.395Z,1019.89
2022-08-20T10:33:09.223Z,1019.90
2022-08-20T10:34:10.040Z,1019.89
2022-08-20T10:35:10.857Z,1019.89
2022-08-20T10:36:11.715Z,1019.88
2022-08-20T10:37:12.514Z,1019.92
2022-08-20T10:38:13.331Z,1019.92
2022-08-20T10:39:14.161Z,1019.94
2022-08-20T10:40:15.105Z,1019.92
2022-08-20T10:41:15.944Z,1019.93
2022-08-20T10:42:16.828Z,1019.90
2022-08-20T10:43:17.617Z,1019.89
2022-08-20T10:44:18.436Z,1019.89
2022-08-20T10:45:19.262Z,1019.87
2022-08-20T10:46:20.080Z,1019.86
2022-08-20T10:47:20.916Z,1019.83
2022-08-20T10:48:21.899Z,1019.84
2022-08-20T10:49:22.661Z,1019.85
2022-08-20T10:50:23.479Z,1019.84
2022-08-20T10:51:32.247Z,1019.84
2022-08-20T10:52:26.078Z,1019.86
2022-08-20T10:53:25.935Z,1019.87
2022-08-20T10:54:26.714Z,1019.85
2022-08-20T10:55:27.543Z,1019.83
2022-08-20T10:56:28.361Z,1019.82
2022-08-20T10:57:29.208Z,1019.81
2022-08-20T10:58:39.280Z,1019.78
2022-08-20T10:59:31.739Z,1019.77
2022-08-20T11:00:31.567Z,1019.75
2022-08-20T11:01:36.168Z,1019.74
2022-08-20T11:02:33.066Z,1019.72
2022-08-20T11:03:33.893Z,1019.71
2022-08-20T11:04:34.714Z,1019.68
2022-08-20T11:05:35.550Z,1019.70
2022-08-20T11:06:36.363Z,1019.70
2022-08-20T11:07:55.696Z,1019.70
2022-08-20T11:08:38.911Z,1019.69
2022-08-20T11:09:38.738Z,1019.64
2022-08-20T11:10:39.557Z,1019.61
2022-08-20T11:11:40.394Z,1019.61
2022-08-20T11:12:42.036Z,1019.52
2022-08-20T11:13:41.777Z,1019.52
2022-08-20T11:14:42.596Z,1019.54
2022-08-20T11:15:43.423Z,1019.52
2022-08-20T11:16:44.241Z,1019.56
2022-08-20T11:17:45.077Z,1019.53
2022-08-20T11:18:47.456Z,1019.51
2022-08-20T11:19:46.502Z,1019.51
2022-08-20T11:20:47.318Z,1019.48
2022-08-20T11:21:48.138Z,1019.47
2022-08-20T11:22:48.979Z,1019.46
2022-08-20T11:23:49.802Z,1019.43
2022-08-20T11:24:50.621Z,1019.42
2022-08-20T11:25:51.440Z,1019.42
2022-08-20T11:26:52.269Z,1019.40
2022-08-20T11:27:53.235Z,1019.40
2022-08-20T11:28:54.039Z,1019.40
2022-08-20T11:29:54.871Z,1019.39
2022-08-20T11:30:55.677Z,1019.38
2022-08-20T11:31:56.529Z,1019.39
2022-08-20T11:32:57.340Z,1019.45
2022-08-20T11:33:58.171Z,1019.47
2022-08-20T11:34:59.008Z,1019.47
2022-08-20T11:35:59.817Z,1019.44
2022-08-20T11:37:00.656Z,1019.41
2022-08-20T11:38:01.482Z,1019.39
2022-08-20T11:39:02.299Z,1019.40
2022-08-20T11:40:03.165Z,1019.41
2022-08-20T11:41:03.946Z,1019.39
2022-08-20T11:42:04.782Z,1019.38
2022-08-20T11:43:21.069Z,1019.37
2022-08-20T11:44:20.775Z,1019.36
2022-08-20T11:45:08.027Z,1019.35
2022-08-20T11:46:07.905Z,1019.33
2022-08-20T11:47:08.757Z,1019.33
2022-08-20T11:48:09.575Z,1019.31
2022-08-20T11:49:10.392Z,1019.33
2022-08-20T11:50:11.199Z,1019.33
2022-08-20T11:51:12.027Z,1019.33
2022-08-20T11:52:12.862Z,1019.34
2022-08-20T11:53:14.978Z,1019.33
2022-08-20T11:54:14.360Z,1019.32
2022-08-20T11:55:15.110Z,1019.34
2022-08-20T11:56:15.971Z,1019.35
2022-08-20T11:57:16.657Z,1019.35
2022-08-20T11:58:17.482Z,1019.35
2022-08-20T11:59:18.310Z,1019.33
2022-08-20T12:00:19.138Z,1019.32
2022-08-20T12:01:19.956Z,1019.32
2022-08-20T12:02:20.843Z,1019.31
2022-08-20T12:03:21.716Z,1019.32
2022-08-20T12:04:22.491Z,1019.31
2022-08-20T12:05:23.040Z,1019.30
2022-08-20T12:06:23.880Z,1019.30
2022-08-20T12:07:24.706Z,1019.29
2022-08-20T12:08:27.216Z,1019.30
2022-08-20T12:09:26.323Z,1019.31
2022-08-20T12:10:27.152Z,1019.31
2022-08-20T12:11:27.979Z,1019.30
2022-08-20T12:12:28.805Z,1019.30
2022-08-20T12:13:34.460Z,1019.31
2022-08-20T12:14:31.348Z,1019.29
2022-08-20T12:15:31.165Z,1019.28
2022-08-20T12:16:31.992Z,1019.26
2022-08-20T12:17:32.837Z,1019.29
2022-08-20T12:18:33.654Z,1019.27
2022-08-20T12:19:34.482Z,1019.28
2022-08-20T12:20:35.311Z,1019.28
2022-08-20T12:21:36.129Z,1019.30
2022-08-20T12:22:36.969Z,1019.30
2022-08-20T12:23:37.805Z,1019.32
2022-08-20T12:24:38.622Z,1019.32
2022-08-20T12:25:39.444Z,1019.30
2022-08-20T12:26:40.268Z,1019.30
2022-08-20T12:27:41.097Z,1019.29
2022-08-20T12:28:41.925Z,1019.30
2022-08-20T12:29:42.762Z,1019.28
2022-08-20T12:30:43.571Z,1019.29
2022-08-20T12:31:44.394Z,1019.29
2022-08-20T12:32:45.227Z,1019.26
2022-08-20T12:33:46.046Z,1019.27
2022-08-20T12:34:46.867Z,1019.28
2022-08-20T12:35:47.694Z,1019.31
2022-08-20T12:36:48.513Z,1019.31
2022-08-20T12:37:49.341Z,1019.34
2022-08-20T12:38:50.170Z,1019.38
2022-08-20T12:39:51.050Z,1019.38
2022-08-20T12:40:51.816Z,1019.40
2022-08-20T12:41:52.649Z,1019.41
2022-08-20T12:42:53.472Z,1019.41
2022-08-20T12:43:53.981Z,1019.40
2022-08-20T12:44:54.808Z,1019.43
2022-08-20T12:45:55.627Z,1019.43
2022-08-20T12:46:56.445Z,1019.44
2022-08-20T12:47:57.301Z,1019.46
2022-08-20T12:48:58.115Z,1019.45
2022-08-20T12:49:58.934Z,1019.47
2022-08-20T12:50:59.761Z,1019.47
2022-08-20T12:52:00.576Z,1019.47
2022-08-20T12:53:01.405Z,1019.48
2022-08-20T12:54:02.232Z,1019.49
2022-08-20T12:55:03.053Z,1019.49
2022-08-20T12:56:03.914Z,1019.49
2022-08-20T12:57:07.985Z,1019.50
2022-08-20T12:58:05.477Z,1019.52
2022-08-20T12:59:06.305Z,1019.53
2022-08-20T13:00:07.156Z,1019.54
2022-08-20T13:01:08.053Z,1019.54
2022-08-20T13:02:18.912Z,1019.53
2022-08-20T13:03:10.561Z,1019.52
2022-08-20T13:04:10.382Z,1019.54
2022-08-20T13:05:11.208Z,1019.55
2022-08-20T13:06:12.037Z,1019.55
2022-08-20T13:07:12.856Z,1019.55
2022-08-20T13:08:13.682Z,1019.59
2022-08-20T13:09:14.509Z,1019.60
2022-08-20T13:10:15.337Z,1019.60
2022-08-20T13:11:16.168Z,1019.60
2022-08-20T13:12:16.992Z,1019.60
2022-08-20T13:13:20.657Z,1019.60
2022-08-20T13:14:18.408Z,1019.57
2022-08-20T13:15:19.229Z,1019.54
2022-08-20T13:16:20.045Z,1019.49
2022-08-20T13:17:31.842Z,1019.48
2022-08-20T13:18:22.595Z,1019.44
2022-08-20T13:19:22.421Z,1019.44
2022-08-20T13:20:23.241Z,1019.40
2022-08-20T13:21:24.196Z,1019.38
2022-08-20T13:22:24.957Z,1019.36
2022-08-20T13:23:25.819Z,1019.34
2022-08-20T13:24:26.635Z,1019.30
2022-08-20T13:25:27.462Z,1019.27
2022-08-20T13:26:28.291Z,1019.28
2022-08-20T13:27:29.117Z,1019.29
2022-08-20T13:28:29.965Z,1019.27
2022-08-20T13:29:30.807Z,1019.29
2022-08-20T13:30:31.620Z,1019.27
2022-08-20T13:31:32.437Z,1019.25
2022-08-20T13:32:33.256Z,1019.25
2022-08-20T13:33:34.108Z,1019.22
2022-08-20T13:34:34.925Z,1019.19
2022-08-20T13:35:35.763Z,1019.16
2022-08-20T13:36:36.572Z,1019.12
2022-08-20T13:37:37.399Z,1019.12
2022-08-20T13:38:38.230Z,1019.13
2022-08-20T13:39:39.093Z,1019.12
2022-08-20T13:40:39.863Z,1019.10
2022-08-20T13:41:40.707Z,1019.06
2022-08-20T13:42:41.520Z,1019.01
2022-08-20T13:43:42.364Z,1018.99
2022-08-20T13:44:43.188Z,1018.99
2022-08-20T13:45:44.008Z,1019.00
2022-08-20T13:46:44.827Z,1019.04